Time;durP1;ratioP1;P1;durP2;ratioP2;P2;SDS_P1;SDS_P2;PMS_P1;PMS_P2;Temp;Humidity;BMP_temperature;BMP_pressure;BME280_temperature;BME280_humidity;BME280_pressure;Samples;Min_cycle;Max_cycle;Signal;HPM_P1;HPM_P2
2022/08/18 00:02:21;;;;;;;;;;;;;;;19.09;92.14;101243.56;5006222;28;19913;-56
2022/08/18 00:04:47;;;;;;;;;;;;;;;19.10;92.26;101247.91;5004294;28;19987;-56
2022/08/18 00:07:14;;;;;;;;;;;;;;;19.07;91.97;101245.63;5006891;28;19963;-56
2022/08/18 00:09:40;;;;;;;;;;;;;;;19.04;92.38;101243.38;5006381;28;20423;-56
2022/08/18 00:12:12;;;;;;;;;;;;;;;19.02;92.39;101245.44;5008297;28;19972;-57
2022/08/18 00:14:37;;;;;;;;;;;;;;;19.00;92.13;101248.34;5013073;28;19921;-58
2022/08/18 00:17:02;;;;;;;;;;;;;;;19.00;92.23;101248.34;5008831;28;20593;-57
2022/08/18 00:19:28;;;;;;;;;;;;;;;18.97;92.18;101248.78;5008655;28;19956;-56
2022/08/18 00:21:53;;;;;;;;;;;;;;;18.97;92.32;101246.09;5001027;28;19913;-56
2022/08/18 00:24:18;;;;;;;;;;;;;;;18.95;92.14;101252.75;4999174;28;19910;-56
2022/08/18 00:26:43;;;;;;;;;;;;;;;18.91;92.36;101251.53;5006698;28;19909;-56
2022/08/18 00:29:08;;;;;;;;;;;;;;;18.87;92.30;101245.75;5009009;28;19924;-56
2022/08/18 00:31:34;;;;;;;;;;;;;;;18.83;92.20;101239.97;5006424;28;19909;-55
2022/08/18 00:33:59;;;;;;;;;;;;;;;18.84;92.52;101254.25;5007445;28;19920;-55
2022/08/18 00:36:24;;;;;;;;;;;;;;;18.83;92.40;101258.81;5004095;28;19914;-55
2022/08/18 00:38:50;;;;;;;;;;;;;;;18.82;92.30;101259.88;5006230;28;20492;-55
2022/08/18 00:41:15;;;;;;;;;;;;;;;18.81;92.40;101266.28;5007579;28;19913;-56
2022/08/18 00:43:42;;;;;;;;;;;;;;;18.78;92.44;101272.06;5003457;28;19969;-56
2022/08/18 00:46:10;;;;;;;;;;;;;;;18.79;92.24;101270.19;5007863;28;19924;-55
2022/08/18 00:48:36;;;;;;;;;;;;;;;18.79;92.23;101272.88;5008432;28;19919;-55
2022/08/18 00:51:06;;;;;;;;;;;;;;;18.76;92.16;101281.41;5016441;28;20301;-54
2022/08/18 00:53:34;;;;;;;;;;;;;;;18.73;92.55;101282.66;5013965;28;19990;-55
2022/08/18 00:56:05;;;;;;;;;;;;;;;18.68;92.32;101278.94;5008371;28;20396;-55
2022/08/18 00:58:33;;;;;;;;;;;;;;;18.68;92.17;101287.84;5005174;28;19913;-56
2022/08/18 01:01:01;;;;;;;;;;;;;;;18.69;92.66;101278.75;5007886;28;19917;-56
2022/08/18 01:03:28;;;;;;;;;;;;;;;18.69;92.57;101278.75;5000661;28;19920;-56
2022/08/18 01:06:00;;;;;;;;;;;;;;;18.69;92.46;101273.34;5002958;28;20008;-56
2022/08/18 01:08:25;;;;;;;;;;;;;;;18.68;92.11;101279.78;5003140;28;20008;-55
2022/08/18 01:10:51;;;;;;;;;;;;;;;18.63;91.99;101282.28;5000404;28;19993;-56
2022/08/18 01:13:17;;;;;;;;;;;;;;;18.57;92.03;101283.94;5005382;28;20004;-56
2022/08/18 01:15:42;;;;;;;;;;;;;;;18.47;91.91;101286.22;5004428;28;19955;-56
2022/08/18 01:24:04;;;;;;;;;;;;;;;18.27;92.76;101280.09;5005606;28;20067;-54
2022/08/18 01:26:30;;;;;;;;;;;;;;;18.24;92.74;101278.66;5000692;28;19909;-56
2022/08/18 01:29:03;;;;;;;;;;;;;;;18.22;92.90;101280.72;5009141;28;20373;-55
2022/08/18 01:31:36;;;;;;;;;;;;;;;18.21;93.06;101281.75;5002757;28;19913;-56
2022/08/18 01:34:02;;;;;;;;;;;;;;;18.17;93.32;101272.44;5006101;28;19916;-56
2022/08/18 01:36:28;;;;;;;;;;;;;;;18.14;93.39;101266.66;5001971;28;19922;-56
2022/08/18 01:38:53;;;;;;;;;;;;;;;18.10;93.32;101274.31;5003794;28;20452;-55
2022/08/18 01:41:20;;;;;;;;;;;;;;;18.08;93.68;101280.94;5006384;28;20500;-53
2022/08/18 01:43:45;;;;;;;;;;;;;;;18.05;93.76;101267.94;5005656;28;19917;-55
2022/08/18 01:46:11;;;;;;;;;;;;;;;18.03;94.14;101267.31;5013588;28;19976;-56
2022/08/18 01:48:38;;;;;;;;;;;;;;;18.01;94.08;101264.84;5003627;28;19914;-55
2022/08/18 01:51:05;;;;;;;;;;;;;;;18.03;94.05;101261.94;5004755;28;19909;-54
2022/08/18 01:53:30;;;;;;;;;;;;;;;18.03;94.12;101273.50;5010162;28;20288;-55
2022/08/18 01:55:56;;;;;;;;;;;;;;;18.04;94.13;101260.91;5005748;28;19920;-53
2022/08/18 01:58:26;;;;;;;;;;;;;;;18.04;94.00;101264.41;5003632;28;20032;-55
2022/08/18 02:00:51;;;;;;;;;;;;;;;18.06;93.92;101273.09;5008286;28;20000;-55
2022/08/18 02:03:16;;;;;;;;;;;;;;;18.05;93.90;101266.06;5013150;28;20499;-55
2022/08/18 02:05:43;;;;;;;;;;;;;;;18.04;93.97;101267.09;5007145;28;20353;-54
2022/08/18 02:08:11;;;;;;;;;;;;;;;18.04;93.80;101264.41;5001560;28;19917;-54
2022/08/18 02:10:36;;;;;;;;;;;;;;;18.03;93.72;101264.63;5008023;28;19909;-55
2022/08/18 02:13:01;;;;;;;;;;;;;;;18.03;93.76;101272.69;5004256;28;19917;-55
2022/08/18 02:15:27;;;;;;;;;;;;;;;18.02;93.42;101258.44;5011731;28;19924;-55
2022/08/18 02:17:52;;;;;;;;;;;;;;;18.05;93.50;101265.25;5006244;28;20408;-55
2022/08/18 02:20:18;;;;;;;;;;;;;;;18.08;93.47;101259.44;5002445;28;19976;-55
2022/08/18 02:22:44;;;;;;;;;;;;;;;18.09;93.18;101267.28;4999838;28;20431;-54
2022/08/18 02:25:10;;;;;;;;;;;;;;;18.10;93.24;101268.94;5007880;28;19910;-55
2022/08/18 02:27:35;;;;;;;;;;;;;;;18.10;93.49;101262.75;5014353;28;19929;-56
2022/08/18 02:30:01;;;;;;;;;;;;;;;18.08;93.19;101257.56;5009899;28;20007;-56
2022/08/18 02:32:27;;;;;;;;;;;;;;;18.08;92.79;101262.97;5009994;28;19909;-55
2022/08/18 02:34:52;;;;;;;;;;;;;;;18.09;93.08;101263.78;5011422;28;19924;-56
2022/08/18 02:37:18;;;;;;;;;;;;;;;18.11;92.89;101275.97;5012523;28;19913;-54
2022/08/18 02:39:43;;;;;;;;;;;;;;;18.12;92.85;101266.03;5011228;28;19964;-56
2022/08/18 02:42:08;;;;;;;;;;;;;;;18.12;92.92;101263.34;5008434;28;19956;-55
2022/08/18 02:44:34;;;;;;;;;;;;;;;18.13;92.74;101259.63;5011619;28;20336;-54
2022/08/18 02:46:59;;;;;;;;;;;;;;;18.12;92.62;101264.19;5010574;28;19941;-56
2022/08/18 02:49:24;;;;;;;;;;;;;;;18.13;92.42;101263.16;5007822;28;20344;-54
2022/08/18 02:51:50;;;;;;;;;;;;;;;18.12;92.40;101261.50;5003553;28;19913;-55
2022/08/18 02:54:17;;;;;;;;;;;;;;;18.13;92.21;101262.31;5010172;28;19909;-55
2022/08/18 02:56:44;;;;;;;;;;;;;;;18.15;92.17;101254.88;5004399;28;20379;-60
2022/08/18 02:59:12;;;;;;;;;;;;;;;18.17;92.04;101261.69;5009343;28;19916;-55
2022/08/18 03:01:39;;;;;;;;;;;;;;;18.18;92.23;101263.34;5004452;28;20028;-56
2022/08/18 03:04:05;;;;;;;;;;;;;;;18.16;92.13;101260.03;5006325;28;19913;-55
2022/08/18 03:06:31;;;;;;;;;;;;;;;18.11;92.00;101256.34;5003986;28;19944;-56
2022/08/18 03:08:56;;;;;;;;;;;;;;;18.06;92.31;101259.66;5001766;28;19909;-52
2022/08/18 03:11:23;;;;;;;;;;;;;;;18.02;92.06;101261.13;5007708;28;19966;-56
2022/08/18 03:13:49;;;;;;;;;;;;;;;17.93;92.20;101265.88;5008395;28;19928;-56
2022/08/18 03:16:14;;;;;;;;;;;;;;;17.87;91.85;101266.69;5000471;28;19925;-55
2022/08/18 03:18:41;;;;;;;;;;;;;;;17.86;91.64;101267.72;5009555;28;19913;-55
2022/08/18 03:21:06;;;;;;;;;;;;;;;17.89;91.69;101270.00;5009146;28;19913;-54
2022/08/18 03:23:32;;;;;;;;;;;;;;;17.90;91.59;101274.34;5009207;28;19935;-55
2022/08/18 03:25:57;;;;;;;;;;;;;;;17.91;91.38;101276.00;5008839;28;19921;-55
2022/08/18 03:28:22;;;;;;;;;;;;;;;17.89;91.46;101278.06;5008871;28;19917;-56
2022/08/18 03:30:47;;;;;;;;;;;;;;;17.86;91.27;101278.47;5007675;28;19917;-55
2022/08/18 03:33:13;;;;;;;;;;;;;;;17.78;91.45;101281.38;5008144;28;19917;-55
2022/08/18 03:35:39;;;;;;;;;;;;;;;17.70;91.59;101291.53;5009409;28;19917;-54
2022/08/18 03:38:05;;;;;;;;;;;;;;;17.62;91.76;101293.31;4999817;28;19915;-55
2022/08/18 03:40:30;;;;;;;;;;;;;;;17.57;91.66;101292.28;5004561;28;20000;-55
2022/08/18 03:42:55;;;;;;;;;;;;;;;17.56;91.81;101291.47;5009257;28;19967;-55
2022/08/18 03:45:22;;;;;;;;;;;;;;;17.56;91.60;101290.63;5013015;28;19983;-55
2022/08/18 03:47:50;;;;;;;;;;;;;;;17.61;91.68;101293.53;5010789;28;20321;-55
2022/08/18 03:50:17;;;;;;;;;;;;;;;17.63;91.48;101292.28;5010582;28;20000;-56
2022/08/18 03:52:46;;;;;;;;;;;;;;;17.68;91.26;101296.28;5005220;28;19920;-55
2022/08/18 03:55:11;;;;;;;;;;;;;;;17.71;91.05;101295.84;5006638;28;19917;-56
2022/08/18 03:57:36;;;;;;;;;;;;;;;17.73;91.37;101293.78;5010693;28;19924;-56
2022/08/18 04:00:02;;;;;;;;;;;;;;;17.74;91.13;101292.75;5013508;28;19912;-56
2022/08/18 04:02:28;;;;;;;;;;;;;;;17.70;91.10;101288.84;5012641;28;20312;-55
2022/08/18 04:04:54;;;;;;;;;;;;;;;17.67;91.22;101283.84;5001233;28;19949;-56
2022/08/18 04:07:19;;;;;;;;;;;;;;;17.62;90.96;101287.13;5006996;28;19951;-56
2022/08/18 04:09:44;;;;;;;;;;;;;;;17.58;91.04;101285.88;5005328;28;19944;-55
2022/08/18 04:12:11;;;;;;;;;;;;;;;17.51;91.11;101288.56;5005418;28;19920;-55
2022/08/18 04:14:37;;;;;;;;;;;;;;;17.49;90.80;101289.81;5006354;28;19924;-56
2022/08/18 04:17:03;;;;;;;;;;;;;;;17.46;90.86;101285.69;5010264;28;20380;-56
2022/08/18 04:19:29;;;;;;;;;;;;;;;17.43;91.24;101287.94;5012063;28;20431;-56
2022/08/18 04:21:56;;;;;;;;;;;;;;;17.39;90.99;101286.72;5006367;28;19967;-56
2022/08/18 04:24:21;;;;;;;;;;;;;;;17.33;91.07;101282.97;5012790;28;20044;-56
2022/08/18 04:26:47;;;;;;;;;;;;;;;17.29;90.83;101281.72;5005971;28;19983;-56
2022/08/18 04:29:15;;;;;;;;;;;;;;;17.27;90.58;101278.41;4999326;28;19910;-55
2022/08/18 04:31:40;;;;;;;;;;;;;;;17.17;90.85;101278.00;5007497;28;19917;-55
2022/08/18 04:34:06;;;;;;;;;;;;;;;17.15;90.70;101285.41;5003756;28;19913;-53
2022/08/18 04:36:33;;;;;;;;;;;;;;;17.10;91.02;101282.53;5004760;28;20075;-55
2022/08/18 04:38:58;;;;;;;;;;;;;;;17.06;90.78;101290.16;5007545;28;20001;-55
2022/08/18 04:41:25;;;;;;;;;;;;;;;17.00;91.30;101288.25;5006909;28;20012;-55
2022/08/18 04:43:51;;;;;;;;;;;;;;;16.95;91.21;101291.53;5008780;28;20320;-54
2022/08/18 04:46:16;;;;;;;;;;;;;;;16.88;91.22;101297.91;5012071;28;19909;-55
2022/08/18 04:48:42;;;;;;;;;;;;;;;16.83;91.37;101295.84;5002732;28;20560;-56
2022/08/18 04:51:11;;;;;;;;;;;;;;;16.77;91.35;101304.69;5008380;28;19999;-54
2022/08/18 04:53:46;;;;;;;;;;;;;;;16.71;91.27;101289.38;5000067;28;19910;-55
2022/08/18 04:56:25;;;;;;;;;;;;;;;16.72;91.01;101299.09;5002765;28;19924;-55
2022/08/18 04:58:51;;;;;;;;;;;;;;;16.78;91.27;101302.84;5000894;28;19913;-56
2022/08/18 05:01:18;;;;;;;;;;;;;;;16.81;91.48;101310.50;5009797;28;19968;-55
2022/08/18 05:03:43;;;;;;;;;;;;;;;16.84;91.58;101304.72;5011197;28;20324;-53
2022/08/18 05:06:08;;;;;;;;;;;;;;;16.84;91.75;101305.53;5003988;28;20011;-54
2022/08/18 05:08:34;;;;;;;;;;;;;;;16.85;92.15;101306.38;5003500;28;19914;-54
2022/08/18 05:10:59;;;;;;;;;;;;;;;16.85;92.10;101301.84;5010750;28;20447;-54
2022/08/18 05:13:25;;;;;;;;;;;;;;;16.82;92.11;101299.56;5001143;28;20004;-55
2022/08/18 05:15:55;;;;;;;;;;;;;;;16.80;92.27;101303.47;5002488;28;19920;-55
2022/08/18 05:18:23;;;;;;;;;;;;;;;16.76;92.02;101297.66;5013052;28;19960;-55
2022/08/18 05:20:48;;;;;;;;;;;;;;;16.75;91.78;101300.53;5009979;28;19924;-54
2022/08/18 05:23:14;;;;;;;;;;;;;;;16.75;91.74;101298.69;5012162;28;19913;-54
2022/08/18 05:25:39;;;;;;;;;;;;;;;16.76;92.07;101299.50;5000899;28;19915;-55
2022/08/18 05:28:05;;;;;;;;;;;;;;;16.77;92.17;101301.16;5013806;28;19913;-54
2022/08/18 05:30:30;;;;;;;;;;;;;;;16.78;92.09;101300.16;5010442;28;20009;-54
2022/08/18 05:32:57;;;;;;;;;;;;;;;16.79;92.44;101301.81;5008172;28;19918;-56
2022/08/18 05:35:26;;;;;;;;;;;;;;;16.80;92.66;101304.28;5006761;28;19918;-56
2022/08/18 05:37:51;;;;;;;;;;;;;;;16.80;92.43;101306.16;4999461;28;19909;-55
2022/08/18 05:40:17;;;;;;;;;;;;;;;16.82;92.59;101307.59;5011366;28;19914;-54
2022/08/18 05:42:43;;;;;;;;;;;;;;;16.86;93.31;101313.38;5008854;28;19920;-54
2022/08/18 05:45:14;;;;;;;;;;;;;;;16.92;93.55;101309.91;5004905;28;20404;-55
2022/08/18 05:47:39;;;;;;;;;;;;;;;16.98;93.44;101317.97;5012574;28;19967;-55
2022/08/18 05:50:09;;;;;;;;;;;;;;;17.06;93.41;101316.13;5008289;28;19909;-55
2022/08/18 05:52:37;;;;;;;;;;;;;;;17.12;93.65;101318.84;5006711;28;19913;-55
2022/08/18 05:58:04;;;;;;;;;;;;;;;17.25;94.65;101313.50;5008329;28;20332;-55
2022/08/18 06:00:29;;;;;;;;;;;;;;;17.31;94.68;101314.56;5007913;28;19995;-56
2022/08/18 06:02:55;;;;;;;;;;;;;;;17.36;95.06;101316.66;5007784;28;20445;-56
2022/08/18 06:05:26;;;;;;;;;;;;;;;17.39;94.83;101327.81;5010533;28;19992;-54
2022/08/18 06:07:53;;;;;;;;;;;;;;;17.43;94.73;101334.44;5013858;28;19913;-55
2022/08/18 06:10:18;;;;;;;;;;;;;;;17.48;95.10;101334.63;5009208;28;19953;-56
2022/08/18 06:12:46;;;;;;;;;;;;;;;17.53;95.25;101331.34;4995250;28;19917;-55
2022/08/18 06:15:23;;;;;;;;;;;;;;;17.57;94.79;101330.72;4999514;28;20017;-54
2022/08/18 06:18:07;;;;;;;;;;;;;;;17.61;95.43;101328.44;4995540;28;19929;-54
2022/08/18 06:20:44;;;;;;;;;;;;;;;17.67;94.71;101332.19;4999853;28;20347;-53
2022/08/18 06:23:24;;;;;;;;;;;;;;;17.73;95.17;101332.22;4992808;28;19917;-55
2022/08/18 06:25:56;;;;;;;;;;;;;;;17.79;95.34;101333.25;4995775;28;19916;-53
2022/08/18 06:28:21;;;;;;;;;;;;;;;17.85;95.53;101341.31;4997726;28;19909;-55
2022/08/18 06:31:04;;;;;;;;;;;;;;;17.92;95.42;101338.63;5000998;28;19909;-55
2022/08/18 06:33:30;;;;;;;;;;;;;;;17.97;95.46;101338.84;5009613;28;20266;-55
2022/08/18 06:36:01;;;;;;;;;;;;;;;18.04;95.67;101336.16;5005836;28;20412;-55
2022/08/18 06:38:55;;;;;;;;;;;;;;;18.08;95.57;101342.75;5014006;28;19909;-56
2022/08/18 06:41:22;;;;;;;;;;;;;;;18.13;95.66;101334.91;5010541;28;19909;-55
2022/08/18 06:43:58;;;;;;;;;;;;;;;18.18;95.66;101341.31;5010220;28;19917;-55
2022/08/18 06:46:32;;;;;;;;;;;;;;;18.24;96.20;101345.88;5007980;28;19917;-55
2022/08/18 06:49:02;;;;;;;;;;;;;;;18.31;95.67;101347.72;5012238;28;19909;-56
2022/08/18 06:51:27;;;;;;;;;;;;;;;18.38;95.88;101351.22;5009781;28;19925;-56
2022/08/18 06:53:59;;;;;;;;;;;;;;;18.44;95.76;101348.50;5008376;28;19913;-56
2022/08/18 06:56:39;;;;;;;;;;;;;;;18.48;95.94;101357.81;5008873;28;19917;-56
2022/08/18 06:59:13;;;;;;;;;;;;;;;18.49;95.72;101355.94;5010517;28;19992;-56
2022/08/18 07:01:38;;;;;;;;;;;;;;;18.53;95.70;101346.44;5007553;28;19956;-56
2022/08/18 07:04:04;;;;;;;;;;;;;;;18.60;95.59;101346.41;5016179;28;19949;-54
2022/08/18 07:06:30;;;;;;;;;;;;;;;18.65;95.64;101360.91;5010057;28;19963;-55
2022/08/18 07:09:15;;;;;;;;;;;;;;;18.71;95.65;101361.94;5004891;28;20301;-56
2022/08/18 07:11:56;;;;;;;;;;;;;;;18.73;95.47;101363.38;5013617;28;19999;-56
2022/08/18 07:14:22;;;;;;;;;;;;;;;18.76;95.72;101362.13;5009327;28;20543;-55
2022/08/18 07:16:47;;;;;;;;;;;;;;;18.79;95.28;101362.53;5010528;28;19913;-55
2022/08/18 07:19:19;;;;;;;;;;;;;;;18.82;95.56;101362.13;5005999;28;20277;-56
2022/08/18 07:21:45;;;;;;;;;;;;;;;18.83;95.48;101360.25;5009678;28;19996;-56
2022/08/18 07:24:13;;;;;;;;;;;;;;;18.90;94.95;101360.22;5009981;28;20013;-56
2022/08/18 07:26:59;;;;;;;;;;;;;;;18.97;95.20;101355.63;5004822;28;19913;-57
2022/08/18 07:29:24;;;;;;;;;;;;;;;19.10;94.80;101363.66;5005842;28;19936;-58
2022/08/18 07:31:51;;;;;;;;;;;;;;;19.20;94.68;101355.94;5006577;28;19963;-57
2022/08/18 07:34:24;;;;;;;;;;;;;;;19.31;94.39;101357.94;4998649;28;19916;-57
2022/08/18 07:37:00;;;;;;;;;;;;;;;19.41;93.97;101360.19;4996126;28;19964;-57
2022/08/18 07:39:28;;;;;;;;;;;;;;;19.48;93.88;101356.41;5007274;28;19955;-57
2022/08/18 07:42:06;;;;;;;;;;;;;;;19.61;93.74;101365.47;5002287;28;19916;-57
2022/08/18 07:44:52;;;;;;;;;;;;;;;19.69;93.40;101360.69;5006089;28;20434;-57
2022/08/18 07:47:21;;;;;;;;;;;;;;;19.75;92.82;101367.88;5005877;28;19964;-57
2022/08/18 07:49:46;;;;;;;;;;;;;;;19.78;92.36;101364.75;5002619;28;19919;-57
2022/08/18 07:52:18;;;;;;;;;;;;;;;19.83;92.14;101358.69;5009715;28;19909;-57
2022/08/18 07:54:58;;;;;;;;;;;;;;;19.90;92.10;101369.41;5006245;28;20392;-57
2022/08/18 07:57:41;;;;;;;;;;;;;;;19.95;91.62;101356.97;5009290;28;20457;-57
2022/08/18 08:00:25;;;;;;;;;;;;;;;20.05;91.35;101368.06;5011731;28;19909;-57
2022/08/18 08:02:57;;;;;;;;;;;;;;;20.15;91.36;101364.03;5012611;28;19916;-57
2022/08/18 08:05:47;;;;;;;;;;;;;;;20.23;91.08;101359.19;5012987;28;19909;-57
2022/08/18 08:08:21;;;;;;;;;;;;;;;20.32;90.43;101365.97;5017129;28;19909;-58
2022/08/18 08:11:05;;;;;;;;;;;;;;;20.37;90.39;101357.19;5002422;28;19921;-57
2022/08/18 08:13:39;;;;;;;;;;;;;;;20.48;90.27;101369.16;5010683;28;19917;-57
2022/08/18 08:16:18;;;;;;;;;;;;;;;20.59;89.89;101371.94;5007420;28;20365;-57
2022/08/18 08:19:07;;;;;;;;;;;;;;;20.71;89.89;101359.34;5014034;28;20286;-57
2022/08/18 08:21:33;;;;;;;;;;;;;;;20.81;89.42;101368.78;5003068;28;19913;-57
2022/08/18 08:24:08;;;;;;;;;;;;;;;20.90;89.17;101365.59;5007760;28;19918;-57
2022/08/18 08:26:35;;;;;;;;;;;;;;;20.96;88.56;101369.25;4997616;28;19960;-56
2022/08/18 08:29:01;;;;;;;;;;;;;;;20.98;88.52;101370.66;4993549;28;19917;-57
2022/08/18 08:31:42;;;;;;;;;;;;;;;21.04;87.97;101366.22;4999662;28;19960;-57
2022/08/18 08:34:13;;;;;;;;;;;;;;;21.07;86.82;101373.06;4992679;28;19956;-57
2022/08/18 08:36:40;;;;;;;;;;;;;;;21.02;85.35;101377.25;4994958;28;19980;-57
2022/08/18 08:39:11;;;;;;;;;;;;;;;21.06;85.09;101379.50;4996593;28;20388;-56
2022/08/18 08:41:55;;;;;;;;;;;;;;;21.09;84.58;101382.56;4998539;28;19913;-57
2022/08/18 08:44:24;;;;;;;;;;;;;;;21.09;84.31;101377.19;4997317;28;19952;-57
2022/08/18 08:46:59;;;;;;;;;;;;;;;21.12;84.04;101378.63;4992010;28;20373;-57
2022/08/18 08:49:44;;;;;;;;;;;;;;;21.18;84.13;101378.53;4992759;28;20428;-57
2022/08/18 08:52:12;;;;;;;;;;;;;;;21.28;83.32;101383.41;4996885;28;20289;-57
2022/08/18 08:54:42;;;;;;;;;;;;;;;21.33;83.29;101378.97;4997403;28;19917;-56
2022/08/18 08:57:09;;;;;;;;;;;;;;;21.44;83.04;101390.06;4999291;28;19921;-56
2022/08/18 08:59:36;;;;;;;;;;;;;;;21.55;82.86;101390.13;4993808;28;19913;-56
2022/08/18 09:02:04;;;;;;;;;;;;;;;21.70;82.51;101388.88;4997485;28;19909;-56
2022/08/18 09:04:38;;;;;;;;;;;;;;;21.88;82.59;101388.78;5010344;28;19992;-57
2022/08/18 09:07:23;;;;;;;;;;;;;;;22.07;81.75;101381.47;5004763;28;19914;-57
2022/08/18 09:09:54;;;;;;;;;;;;;;;22.15;81.06;101383.81;5000726;28;19917;-57
2022/08/18 09:12:23;;;;;;;;;;;;;;;22.15;78.65;101383.81;5005281;28;20262;-57
2022/08/18 09:15:04;;;;;;;;;;;;;;;22.15;78.77;101386.50;5005126;28;20408;-56
2022/08/18 09:17:49;;;;;;;;;;;;;;;22.24;78.64;101385.09;5001255;28;19917;-57
2022/08/18 09:20:26;;;;;;;;;;;;;;;22.27;78.12;101395.47;5003783;28;20411;-57
2022/08/18 09:23:09;;;;;;;;;;;;;;;22.24;76.86;101387.81;4999544;28;19915;-57
2022/08/18 09:25:37;;;;;;;;;;;;;;;22.20;76.67;101387.44;5005216;28;20397;-57
2022/08/18 09:28:32;;;;;;;;;;;;;;;22.18;76.35;101386.88;5010078;28;19920;-57
2022/08/18 09:31:00;;;;;;;;;;;;;;;22.18;76.05;101396.88;4951422;28;20322;-58
2022/08/18 09:33:47;;;;;;;;;;;;;;;22.19;76.60;101396.63;5007206;28;19909;-56
2022/08/18 09:36:21;;;;;;;;;;;;;;;22.23;76.59;101399.69;5006202;28;20351;-56
2022/08/18 09:41:55;;;;;;;;;;;;;;;22.39;76.66;101387.34;5006809;28;19936;-57
2022/08/18 09:44:39;;;;;;;;;;;;;;;22.58;76.54;101380.78;5009138;28;19914;-55
2022/08/18 09:47:04;;;;;;;;;;;;;;;22.69;75.62;101377.22;5012492;28;20395;-57
2022/08/18 09:49:30;;;;;;;;;;;;;;;22.78;75.39;101380.38;5006323;28;19910;-57
2022/08/18 09:51:57;;;;;;;;;;;;;;;22.84;75.04;101377.59;5009871;28;20117;-57
2022/08/18 09:54:23;;;;;;;;;;;;;;;22.80;73.74;101372.81;5004694;28;19914;-57
2022/08/18 09:56:48;;;;;;;;;;;;;;;22.78;74.21;101380.38;5006484;28;19964;-57
2022/08/18 09:59:34;;;;;;;;;;;;;;;22.76;73.65;101377.91;4997505;28;19909;-57
2022/08/18 10:02:07;;;;;;;;;;;;;;;22.72;73.72;101375.91;4998914;28;20001;-56
2022/08/18 10:04:47;;;;;;;;;;;;;;;22.72;73.99;101381.31;5000314;28;19914;-58
2022/08/18 10:07:32;;;;;;;;;;;;;;;22.76;74.22;101385.19;5011695;28;19921;-56
2022/08/18 10:10:10;;;;;;;;;;;;;;;22.78;73.77;101385.78;5008351;28;20389;-57
2022/08/18 10:12:50;;;;;;;;;;;;;;;22.78;72.78;101385.78;5009788;28;19937;-57
2022/08/18 10:15:34;;;;;;;;;;;;;;;22.80;72.74;101380.94;5009566;28;19923;-57
2022/08/18 10:18:17;;;;;;;;;;;;;;;22.93;72.96;101363.66;5012346;28;19921;-56
2022/08/18 10:21:02;;;;;;;;;;;;;;;23.15;72.19;101367.38;5010408;28;19954;-57
2022/08/18 10:23:46;;;;;;;;;;;;;;;23.39;71.72;101354.53;5009437;28;19920;-56
2022/08/18 10:26:32;;;;;;;;;;;;;;;23.63;70.86;101372.34;5011355;28;19958;-56
2022/08/18 10:29:01;;;;;;;;;;;;;;;23.88;69.57;101368.44;5002774;28;19920;-57
2022/08/18 10:31:27;;;;;;;;;;;;;;;24.16;69.64;101365.63;5006628;28;19913;-55
2022/08/18 10:33:54;;;;;;;;;;;;;;;24.35;67.76;101367.06;5007796;28;20292;-57
2022/08/18 10:36:38;;;;;;;;;;;;;;;24.34;67.03;101361.88;5009831;28;20010;-57
2022/08/18 10:39:09;;;;;;;;;;;;;;;24.24;66.36;101358.97;5006642;28;19921;-58
2022/08/18 10:41:49;;;;;;;;;;;;;;;24.15;66.72;101364.00;5008689;28;20017;-57
2022/08/18 10:44:15;;;;;;;;;;;;;;;23.99;67.32;101357.50;5010490;28;20012;-57
2022/08/18 10:46:42;;;;;;;;;;;;;;;23.97;68.17;101361.53;5005773;28;19917;-56
2022/08/18 10:49:11;;;;;;;;;;;;;;;23.90;67.98;101358.97;5013623;28;19932;-57
2022/08/18 10:51:55;;;;;;;;;;;;;;;23.88;67.75;101357.59;5000975;28;20028;-57
2022/08/18 10:54:26;;;;;;;;;;;;;;;23.83;65.71;101368.34;5003654;28;19913;-57
2022/08/18 10:56:54;;;;;;;;;;;;;;;23.77;65.86;101365.56;5006685;28;19917;-57
2022/08/18 10:59:45;;;;;;;;;;;;;;;23.92;66.62;101369.59;5002093;28;19913;-58
2022/08/18 11:02:10;;;;;;;;;;;;;;;24.12;66.52;101364.50;4999283;28;19908;-57
2022/08/18 11:04:43;;;;;;;;;;;;;;;24.24;65.21;101361.69;5011771;28;19921;-57
2022/08/18 11:07:14;;;;;;;;;;;;;;;24.28;63.79;101360.13;5009467;28;19913;-58
2022/08/18 11:09:40;;;;;;;;;;;;;;;24.45;63.92;101360.13;5010376;28;19917;-58
2022/08/18 11:12:06;;;;;;;;;;;;;;;24.59;63.87;101364.13;5014969;28;19909;-58
2022/08/18 11:14:40;;;;;;;;;;;;;;;24.76;64.42;101358.63;5012080;28;19935;-58
2022/08/18 11:17:11;;;;;;;;;;;;;;;24.95;64.87;101360.78;5010522;28;19917;-58
2022/08/18 11:19:38;;;;;;;;;;;;;;;25.11;64.27;101345.50;5011024;28;20449;-58
2022/08/18 11:22:03;;;;;;;;;;;;;;;25.12;62.88;101343.59;5009153;28;19924;-58
2022/08/18 11:24:31;;;;;;;;;;;;;;;25.05;62.96;101341.09;5005185;28;19917;-58
2022/08/18 11:26:57;;;;;;;;;;;;;;;24.96;62.07;101339.88;5010737;28;19929;-57
2022/08/18 11:29:36;;;;;;;;;;;;;;;24.90;62.80;101344.44;5008980;28;19913;-58
2022/08/18 11:32:10;;;;;;;;;;;;;;;24.84;63.04;101334.56;5007022;28;20388;-57
2022/08/18 11:34:41;;;;;;;;;;;;;;;24.78;63.36;101324.72;5008342;28;19913;-58
2022/08/18 11:37:08;;;;;;;;;;;;;;;24.67;63.43;101323.78;5010396;28;19944;-57
2022/08/18 11:39:40;;;;;;;;;;;;;;;24.59;63.82;101329.66;5009555;28;19991;-57
2022/08/18 11:42:07;;;;;;;;;;;;;;;24.49;63.52;101329.50;5006879;28;19920;-58
2022/08/18 11:44:37;;;;;;;;;;;;;;;24.44;63.41;101320.47;5007688;28;19921;-58
2022/08/18 11:47:13;;;;;;;;;;;;;;;24.38;63.89;101320.41;5009027;28;19939;-58
2022/08/18 11:49:44;;;;;;;;;;;;;;;24.32;63.46;101315.16;5009952;28;19972;-58
2022/08/18 11:52:22;;;;;;;;;;;;;;;24.31;63.56;101319.78;5008995;28;19913;-58
2022/08/18 11:54:48;;;;;;;;;;;;;;;24.35;64.13;101309.22;5007830;28;20302;-58
2022/08/18 11:57:32;;;;;;;;;;;;;;;24.40;63.88;101312.81;5009880;28;19915;-58
2022/08/18 11:59:57;;;;;;;;;;;;;;;24.50;63.63;101303.16;5006408;28;19975;-58
2022/08/18 12:02:24;;;;;;;;;;;;;;;24.58;63.80;101303.56;5015102;28;20296;-58
2022/08/18 12:04:55;;;;;;;;;;;;;;;24.65;61.92;101303.38;5006224;28;19929;-58
2022/08/18 12:07:28;;;;;;;;;;;;;;;24.67;62.15;101295.78;5007223;28;19948;-57
2022/08/18 12:10:13;;;;;;;;;;;;;;;24.68;61.65;101300.16;5008944;28;20385;-58
2022/08/18 12:12:49;;;;;;;;;;;;;;;24.74;61.86;101307.28;5009779;28;19924;-58
2022/08/18 12:15:15;;;;;;;;;;;;;;;24.95;61.99;101308.34;5005077;28;19948;-58
2022/08/18 12:17:41;;;;;;;;;;;;;;;25.10;61.25;101307.72;5010054;28;19917;-57
2022/08/18 12:20:07;;;;;;;;;;;;;;;25.20;60.12;101305.13;5007797;28;19909;-57
2022/08/18 12:22:33;;;;;;;;;;;;;;;25.12;58.41;101308.28;5002531;28;20329;-57
2022/08/18 12:24:59;;;;;;;;;;;;;;;24.96;56.98;101293.69;5006950;28;20443;-57
2022/08/18 12:27:25;;;;;;;;;;;;;;;24.95;58.45;101292.88;4999448;28;19972;-58
2022/08/18 12:29:51;;;;;;;;;;;;;;;25.09;58.93;101298.75;5010503;28;19956;-57
2022/08/18 12:32:17;;;;;;;;;;;;;;;25.28;59.44;101291.88;5011528;28;19916;-58
2022/08/18 12:34:43;;;;;;;;;;;;;;;25.44;59.42;101298.25;5006746;28;19909;-58
2022/08/18 12:37:09;;;;;;;;;;;;;;;25.58;59.22;101302.19;5012148;28;20019;-58
2022/08/18 12:39:34;;;;;;;;;;;;;;;25.71;59.08;101294.72;5011764;28;19976;-58
2022/08/18 12:42:01;;;;;;;;;;;;;;;25.84;58.71;101299.72;5009446;28;19913;-58
2022/08/18 12:44:26;;;;;;;;;;;;;;;25.96;58.51;101307.69;5007923;28;20281;-57
2022/08/18 12:46:51;;;;;;;;;;;;;;;26.04;58.22;101304.50;5015964;28;19920;-57
2022/08/18 12:49:18;;;;;;;;;;;;;;;26.06;58.27;101310.50;5007756;28;19993;-57
2022/08/18 12:51:44;;;;;;;;;;;;;;;26.05;58.04;101306.97;5010620;28;19914;-58
2022/08/18 12:54:09;;;;;;;;;;;;;;;26.07;58.12;101315.69;5007449;28;19916;-58
2022/08/18 12:56:34;;;;;;;;;;;;;;;26.08;57.98;101306.44;5006646;28;19943;-57
2022/08/18 12:59:01;;;;;;;;;;;;;;;26.12;57.91;101317.59;5015440;28;19917;-58
2022/08/18 13:01:26;;;;;;;;;;;;;;;26.13;57.90;101320.06;5009186;28;19936;-58